sensor_id;sensor_type;location;lat;lon;timestamp;temperature;humidity
36790;DHT22;22740;52.182;8.780;2023-05-02T00:05:05;12.60;99.90
36790;DHT22;22740;52.182;8.780;2023-05-02T00:11:08;12.50;99.90
36790;DHT22;22740;52.182;8.780;2023-05-02T00:17:19;12.60;99.90
36790;DHT22;22740;52.182;8.780;2023-05-02T00:23:21;12.50;99.90
36790;DHT22;22740;52.182;8.780;2023-05-02T00:29:23;12.40;99.90
36790;DHT22;22740;52.182;8.780;2023-05-02T00:35:24;12.40;99.90
36790;DHT22;22740;52.182;8.780;2023-05-02T00:41:26;12.50;99.90
36790;DHT22;22740;52.182;8.780;2023-05-02T00:47:28;12.50;99.90
36790;DHT22;22740;52.182;8.780;2023-05-02T00:53:31;12.40;99.90
36790;DHT22;22740;52.182;8.780;2023-05-02T00:59:36;12.10;99.90
36790;DHT22;22740;52.182;8.780;2023-05-02T01:06:07;11.60;99.90
36790;DHT22;22740;52.182;8.780;2023-05-02T01:12:31;11.50;99.90
36790;DHT22;22740;52.182;8.780;2023-05-02T01:18:35;11.50;99.90
36790;DHT22;22740;52.182;8.780;2023-05-02T01:30:55;11.40;99.90
36790;DHT22;22740;52.182;8.780;2023-05-02T01:36:58;11.30;99.90
36790;DHT22;22740;52.182;8.780;2023-05-02T01:43:05;11.30;99.90
36790;DHT22;22740;52.182;8.780;2023-05-02T01:49:08;11.40;99.90
36790;DHT22;22740;52.182;8.780;2023-05-02T01:55:12;11.40;99.90
36790;DHT22;22740;52.182;8.780;2023-05-02T02:01:16;11.50;99.90
36790;DHT22;22740;52.182;8.780;2023-05-02T02:07:18;11.40;99.90
36790;DHT22;22740;52.182;8.780;2023-05-02T02:13:30;11.40;99.90
36790;DHT22;22740;52.182;8.780;2023-05-02T02:19:35;11.40;99.90
36790;DHT22;22740;52.182;8.780;2023-05-02T02:25:38;11.30;99.90
36790;DHT22;22740;52.182;8.780;2023-05-02T02:31:40;11.20;99.90
36790;DHT22;22740;52.182;8.780;2023-05-02T02:37:58;11.20;99.90
36790;DHT22;22740;52.182;8.780;2023-05-02T02:44:13;11.10;99.90
36790;DHT22;22740;52.182;8.780;2023-05-02T02:51:02;11.00;99.90
36790;DHT22;22740;52.182;8.780;2023-05-02T02:56:46;11.00;99.90
36790;DHT22;22740;52.182;8.780;2023-05-02T03:02:49;11.00;99.90
36790;DHT22;22740;52.182;8.780;2023-05-02T03:08:53;11.00;99.90
36790;DHT22;22740;52.182;8.780;2023-05-02T03:21:27;11.00;99.90
36790;DHT22;22740;52.182;8.780;2023-05-02T03:27:30;10.90;99.90
36790;DHT22;22740;52.182;8.780;2023-05-02T03:33:32;10.90;99.90
36790;DHT22;22740;52.182;8.780;2023-05-02T03:39:34;10.90;99.90
36790;DHT22;22740;52.182;8.780;2023-05-02T03:45:36;10.80;99.90
36790;DHT22;22740;52.182;8.780;2023-05-02T03:51:38;10.90;99.90
36790;DHT22;22740;52.182;8.780;2023-05-02T03:57:39;10.90;99.90
36790;DHT22;22740;52.182;8.780;2023-05-02T04:03:42;11.00;99.90
36790;DHT22;22740;52.182;8.780;2023-05-02T04:09:44;10.80;99.90
36790;DHT22;22740;52.182;8.780;2023-05-02T04:15:46;10.80;99.90
36790;DHT22;22740;52.182;8.780;2023-05-02T04:21:48;10.70;99.90
36790;DHT22;22740;52.182;8.780;2023-05-02T04:27:50;10.80;99.90
36790;DHT22;22740;52.182;8.780;2023-05-02T04:33:52;10.80;99.90
36790;DHT22;22740;52.182;8.780;2023-05-02T04:39:53;10.90;99.90
36790;DHT22;22740;52.182;8.780;2023-05-02T04:45:55;10.80;99.90
36790;DHT22;22740;52.182;8.780;2023-05-02T04:51:59;10.80;99.90
36790;DHT22;22740;52.182;8.780;2023-05-02T04:58:01;10.70;99.90
36790;DHT22;22740;52.182;8.780;2023-05-02T05:04:03;10.70;99.90
36790;DHT22;22740;52.182;8.780;2023-05-02T05:10:05;10.70;99.90
36790;DHT22;22740;52.182;8.780;2023-05-02T05:16:07;10.60;99.90
36790;DHT22;22740;52.182;8.780;2023-05-02T05:22:09;10.70;99.90
36790;DHT22;22740;52.182;8.780;2023-05-02T05:28:11;10.70;99.90
36790;DHT22;22740;52.182;8.780;2023-05-02T05:34:13;10.00;99.90
36790;DHT22;22740;52.182;8.780;2023-05-02T05:40:16;9.70;99.90
36790;DHT22;22740;52.182;8.780;2023-05-02T05:46:18;9.30;99.90
36790;DHT22;22740;52.182;8.780;2023-05-02T05:52:19;9.10;99.90
36790;DHT22;22740;52.182;8.780;2023-05-02T05:58:21;9.00;99.90
36790;DHT22;22740;52.182;8.780;2023-05-02T06:04:23;8.90;99.90
36790;DHT22;22740;52.182;8.780;2023-05-02T06:10:25;8.90;99.90
36790;DHT22;22740;52.182;8.780;2023-05-02T06:16:27;8.80;99.90
36790;DHT22;22740;52.182;8.780;2023-05-02T06:22:29;8.80;99.90
36790;DHT22;22740;52.182;8.780;2023-05-02T06:28:31;8.80;99.90
36790;DHT22;22740;52.182;8.780;2023-05-02T06:34:33;9.10;99.90
36790;DHT22;22740;52.182;8.780;2023-05-02T06:40:34;9.20;99.90
36790;DHT22;22740;52.182;8.780;2023-05-02T06:46:38;9.20;99.90
36790;DHT22;22740;52.182;8.780;2023-05-02T06:52:39;9.30;99.90
36790;DHT22;22740;52.182;8.780;2023-05-02T06:58:41;9.30;99.90
36790;DHT22;22740;52.182;8.780;2023-05-02T07:04:43;9.40;99.90
36790;DHT22;22740;52.182;8.780;2023-05-02T07:10:45;9.10;99.90
36790;DHT22;22740;52.182;8.780;2023-05-02T07:16:47;9.20;99.90
36790;DHT22;22740;52.182;8.780;2023-05-02T07:22:49;9.30;99.90
36790;DHT22;22740;52.182;8.780;2023-05-02T07:28:51;9.20;99.90
36790;DHT22;22740;52.182;8.780;2023-05-02T07:34:53;8.90;99.90
36790;DHT22;22740;52.182;8.780;2023-05-02T07:40:58;9.10;99.90
36790;DHT22;22740;52.182;8.780;2023-05-02T07:47:01;9.20;99.90
36790;DHT22;22740;52.182;8.780;2023-05-02T07:53:03;9.30;99.90
36790;DHT22;22740;52.182;8.780;2023-05-02T07:59:05;9.30;99.90
36790;DHT22;22740;52.182;8.780;2023-05-02T08:05:07;9.00;99.90
36790;DHT22;22740;52.182;8.780;2023-05-02T08:11:09;9.20;99.90
36790;DHT22;22740;52.182;8.780;2023-05-02T08:17:11;9.10;99.90
36790;DHT22;22740;52.182;8.780;2023-05-02T08:23:13;9.00;99.90
36790;DHT22;22740;52.182;8.780;2023-05-02T08:29:15;9.00;99.90
36790;DHT22;22740;52.182;8.780;2023-05-02T08:35:16;9.00;99.90
36790;DHT22;22740;52.182;8.780;2023-05-02T08:41:19;9.10;99.90
36790;DHT22;22740;52.182;8.780;2023-05-02T08:47:22;9.10;99.90
36790;DHT22;22740;52.182;8.780;2023-05-02T08:53:26;9.10;99.90
36790;DHT22;22740;52.182;8.780;2023-05-02T08:59:29;9.00;99.90
36790;DHT22;22740;52.182;8.780;2023-05-02T09:05:38;9.10;99.90
36790;DHT22;22740;52.182;8.780;2023-05-02T09:11:41;9.30;99.90
36790;DHT22;22740;52.182;8.780;2023-05-02T09:17:47;9.70;99.90
36790;DHT22;22740;52.182;8.780;2023-05-02T09:23:56;9.70;99.90
36790;DHT22;22740;52.182;8.780;2023-05-02T09:30:18;9.80;99.90
36790;DHT22;22740;52.182;8.780;2023-05-02T09:36:21;9.50;99.90
36790;DHT22;22740;52.182;8.780;2023-05-02T09:42:30;9.30;99.90
36790;DHT22;22740;52.182;8.780;2023-05-02T09:48:53;9.20;99.90
36790;DHT22;22740;52.182;8.780;2023-05-02T09:54:56;9.20;99.90
36790;DHT22;22740;52.182;8.780;2023-05-02T10:00:59;9.20;99.90
36790;DHT22;22740;52.182;8.780;2023-05-02T10:07:01;9.20;99.90
36790;DHT22;22740;52.182;8.780;2023-05-02T10:13:06;9.10;99.90
36790;DHT22;22740;52.182;8.780;2023-05-02T10:19:11;9.40;99.90
36790;DHT22;22740;52.182;8.780;2023-05-02T10:25:14;9.40;99.90
36790;DHT22;22740;52.182;8.780;2023-05-02T10:31:17;9.70;99.90
36790;DHT22;22740;52.182;8.780;2023-05-02T10:37:19;10.00;99.90
36790;DHT22;22740;52.182;8.780;2023-05-02T10:43:23;10.40;99.90
36790;DHT22;22740;52.182;8.780;2023-05-02T10:49:25;10.60;99.90
36790;DHT22;22740;52.182;8.780;2023-05-02T10:55:28;10.50;99.90
36790;DHT22;22740;52.182;8.780;2023-05-02T11:01:33;10.30;99.90
36790;DHT22;22740;52.182;8.780;2023-05-02T11:07:38;9.90;99.90
36790;DHT22;22740;52.182;8.780;2023-05-02T11:13:49;10.20;99.90
36790;DHT22;22740;52.182;8.780;2023-05-02T11:25:57;10.90;99.90
36790;DHT22;22740;52.182;8.780;2023-05-02T11:32:02;11.20;99.90
36790;DHT22;22740;52.182;8.780;2023-05-02T11:38:10;11.40;99.90
36790;DHT22;22740;52.182;8.780;2023-05-02T11:44:12;11.00;99.90
36790;DHT22;22740;52.182;8.780;2023-05-02T11:50:14;11.10;99.90
36790;DHT22;22740;52.182;8.780;2023-05-02T11:56:22;11.20;99.90
36790;DHT22;22740;52.182;8.780;2023-05-02T12:02:39;11.50;99.90
36790;DHT22;22740;52.182;8.780;2023-05-02T12:08:42;12.20;99.90
36790;DHT22;22740;52.182;8.780;2023-05-02T12:14:45;12.40;99.90
36790;DHT22;22740;52.182;8.780;2023-05-02T12:20:47;12.00;99.90
36790;DHT22;22740;52.182;8.780;2023-05-02T12:26:48;11.90;99.90
36790;DHT22;22740;52.182;8.780;2023-05-02T12:32:57;11.90;99.90
36790;DHT22;22740;52.182;8.780;2023-05-02T12:39:05;12.00;99.90
36790;DHT22;22740;52.182;8.780;2023-05-02T12:45:16;12.10;99.90
36790;DHT22;22740;52.182;8.780;2023-05-02T12:51:23;11.60;99.90
36790;DHT22;22740;52.182;8.780;2023-05-02T12:57:25;11.60;99.90
36790;DHT22;22740;52.182;8.780;2023-05-02T13:03:27;12.10;99.90
36790;DHT22;22740;52.182;8.780;2023-05-02T13:09:30;12.20;99.90
36790;DHT22;22740;52.182;8.780;2023-05-02T13:15:32;12.10;99.90
36790;DHT22;22740;52.182;8.780;2023-05-02T13:21:34;12.00;99.90
36790;DHT22;22740;52.182;8.780;2023-05-02T13:27:36;11.70;99.90
36790;DHT22;22740;52.182;8.780;2023-05-02T13:33:38;11.90;99.90
36790;DHT22;22740;52.182;8.780;2023-05-02T13:39:39;12.00;99.90
36790;DHT22;22740;52.182;8.780;2023-05-02T13:45:41;11.70;99.90
36790;DHT22;22740;52.182;8.780;2023-05-02T13:51:43;11.70;99.90
36790;DHT22;22740;52.182;8.780;2023-05-02T13:57:45;11.70;99.90
36790;DHT22;22740;52.182;8.780;2023-05-02T14:03:47;11.30;99.90
36790;DHT22;22740;52.182;8.780;2023-05-02T14:09:49;11.10;99.90
36790;DHT22;22740;52.182;8.780;2023-05-02T14:15:52;10.70;99.90
36790;DHT22;22740;52.182;8.780;2023-05-02T14:21:54;10.40;99.90
36790;DHT22;22740;52.182;8.780;2023-05-02T14:27:56;10.90;99.90
36790;DHT22;22740;52.182;8.780;2023-05-02T14:33:57;11.20;99.90
36790;DHT22;22740;52.182;8.780;2023-05-02T14:39:59;11.00;99.90
36790;DHT22;22740;52.182;8.780;2023-05-02T14:46:02;11.00;99.90
36790;DHT22;22740;52.182;8.780;2023-05-02T14:52:04;10.70;99.90
36790;DHT22;22740;52.182;8.780;2023-05-02T14:58:07;10.90;99.90
36790;DHT22;22740;52.182;8.780;2023-05-02T15:04:09;10.80;99.90
36790;DHT22;22740;52.182;8.780;2023-05-02T15:10:13;10.80;99.90
36790;DHT22;22740;52.182;8.780;2023-05-02T15:16:14;10.70;99.90
36790;DHT22;22740;52.182;8.780;2023-05-02T15:22:16;10.90;99.90
36790;DHT22;22740;52.182;8.780;2023-05-02T15:28:18;11.00;99.90
36790;DHT22;22740;52.182;8.780;2023-05-02T15:34:20;11.10;99.90
36790;DHT22;22740;52.182;8.780;2023-05-02T15:40:22;10.80;99.90
36790;DHT22;22740;52.182;8.780;2023-05-02T15:46:26;10.70;99.90
36790;DHT22;22740;52.182;8.780;2023-05-02T15:52:28;10.40;99.90
36790;DHT22;22740;52.182;8.780;2023-05-02T15:58:30;10.50;99.90
36790;DHT22;22740;52.182;8.780;2023-05-02T16:04:32;10.60;99.90
36790;DHT22;22740;52.182;8.780;2023-05-02T16:10:35;10.70;99.90
36790;DHT22;22740;52.182;8.780;2023-05-02T16:16:39;10.60;99.90
36790;DHT22;22740;52.182;8.780;2023-05-02T16:22:44;10.80;99.90
36790;DHT22;22740;52.182;8.780;2023-05-02T16:28:49;10.60;99.90
36790;DHT22;22740;52.182;8.780;2023-05-02T16:34:51;10.60;99.90
36790;DHT22;22740;52.182;8.780;2023-05-02T16:40:53;10.50;99.90
36790;DHT22;22740;52.182;8.780;2023-05-02T16:46:54;10.40;99.90
36790;DHT22;22740;52.182;8.780;2023-05-02T16:52:56;10.30;99.90
36790;DHT22;22740;52.182;8.780;2023-05-02T16:58:59;10.30;99.90
36790;DHT22;22740;52.182;8.780;2023-05-02T17:05:02;10.20;99.90
36790;DHT22;22740;52.182;8.780;2023-05-02T17:11:04;10.20;99.90
36790;DHT22;22740;52.182;8.780;2023-05-02T17:17:08;10.20;99.90
36790;DHT22;22740;52.182;8.780;2023-05-02T17:23:10;10.00;99.90
36790;DHT22;22740;52.182;8.780;2023-05-02T17:29:12;9.90;99.90
36790;DHT22;22740;52.182;8.780;2023-05-02T17:35:14;9.90;99.90
36790;DHT22;22740;52.182;8.780;2023-05-02T17:41:16;9.80;99.90
36790;DHT22;22740;52.182;8.780;2023-05-02T17:47:18;9.90;99.90
36790;DHT22;22740;52.182;8.780;2023-05-02T17:53:20;9.80;99.90
36790;DHT22;22740;52.182;8.780;2023-05-02T17:59:23;9.80;99.90
36790;DHT22;22740;52.182;8.780;2023-05-02T18:05:24;9.80;99.90
36790;DHT22;22740;52.182;8.780;2023-05-02T18:11:27;9.70;99.90
36790;DHT22;22740;52.182;8.780;2023-05-02T18:17:32;9.60;99.90
36790;DHT22;22740;52.182;8.780;2023-05-02T18:23:34;9.60;99.90
36790;DHT22;22740;52.182;8.780;2023-05-02T18:29:36;9.50;99.90
36790;DHT22;22740;52.182;8.780;2023-05-02T18:35:43;9.60;99.90
36790;DHT22;22740;52.182;8.780;2023-05-02T18:41:44;9.60;99.90
36790;DHT22;22740;52.182;8.780;2023-05-02T18:47:46;9.50;99.90
36790;DHT22;22740;52.182;8.780;2023-05-02T18:53:49;9.40;99.90
36790;DHT22;22740;52.182;8.780;2023-05-02T18:59:52;9.40;99.90
36790;DHT22;22740;52.182;8.780;2023-05-02T19:05:53;9.40;99.90
36790;DHT22;22740;52.182;8.780;2023-05-02T19:11:57;9.40;99.90
36790;DHT22;22740;52.182;8.780;2023-05-02T19:17:59;9.30;99.90
36790;DHT22;22740;52.182;8.780;2023-05-02T19:24:01;9.20;99.90
36790;DHT22;22740;52.182;8.780;2023-05-02T19:30:04;9.30;99.90
36790;DHT22;22740;52.182;8.780;2023-05-02T19:36:06;9.10;99.90
36790;DHT22;22740;52.182;8.780;2023-05-02T19:42:08;9.10;99.90
36790;DHT22;22740;52.182;8.780;2023-05-02T19:48:10;9.00;99.90
36790;DHT22;22740;52.182;8.780;2023-05-02T19:54:14;9.10;99.90
36790;DHT22;22740;52.182;8.780;2023-05-02T20:00:16;9.00;99.90
36790;DHT22;22740;52.182;8.780;2023-05-02T20:06:17;9.00;99.90
36790;DHT22;22740;52.182;8.780;2023-05-02T20:12:19;9.00;99.90
36790;DHT22;22740;52.182;8.780;2023-05-02T20:18:21;8.90;99.90
36790;DHT22;22740;52.182;8.780;2023-05-02T20:24:23;9.00;99.90
36790;DHT22;22740;52.182;8.780;2023-05-02T20:30:25;8.90;99.90
36790;DHT22;22740;52.182;8.780;2023-05-02T20:36:27;8.80;99.90
36790;DHT22;22740;52.182;8.780;2023-05-02T20:42:29;8.80;99.90
36790;DHT22;22740;52.182;8.780;2023-05-02T20:48:31;8.80;99.90
36790;DHT22;22740;52.182;8.780;2023-05-02T20:54:33;8.70;99.90
36790;DHT22;22740;52.182;8.780;2023-05-02T21:00:35;8.80;99.90
36790;DHT22;22740;52.182;8.780;2023-05-02T21:06:37;8.70;99.90
36790;DHT22;22740;52.182;8.780;2023-05-02T21:12:39;8.50;99.90
36790;DHT22;22740;52.182;8.780;2023-05-02T21:18:41;8.50;99.90
36790;DHT22;22740;52.182;8.780;2023-05-02T21:24:43;8.50;99.90
36790;DHT22;22740;52.182;8.780;2023-05-02T21:30:48;8.50;99.90
36790;DHT22;22740;52.182;8.780;2023-05-02T21:36:50;8.40;99.90
36790;DHT22;22740;52.182;8.780;2023-05-02T21:42:52;8.30;99.90
36790;DHT22;22740;52.182;8.780;2023-05-02T21:48:54;8.20;99.90
36790;DHT22;22740;52.182;8.780;2023-05-02T21:54:56;8.00;99.90
36790;DHT22;22740;52.182;8.780;2023-05-02T22:00:58;8.00;99.90
36790;DHT22;22740;52.182;8.780;2023-05-02T22:07:01;8.00;99.90
36790;DHT22;22740;52.182;8.780;2023-05-02T22:13:04;7.80;99.90
36790;DHT22;22740;52.182;8.780;2023-05-02T22:19:06;7.60;99.90
36790;DHT22;22740;52.182;8.780;2023-05-02T22:25:08;7.50;99.90
36790;DHT22;22740;52.182;8.780;2023-05-02T22:31:10;7.60;99.90
36790;DHT22;22740;52.182;8.780;2023-05-02T22:37:12;7.10;99.90
36790;DHT22;22740;52.182;8.780;2023-05-02T22:43:15;7.10;99.90
36790;DHT22;22740;52.182;8.780;2023-05-02T22:49:17;7.10;99.90
36790;DHT22;22740;52.182;8.780;2023-05-02T22:55:20;7.00;99.90
36790;DHT22;22740;52.182;8.780;2023-05-02T23:01:22;7.00;99.90
36790;DHT22;22740;52.182;8.780;2023-05-02T23:07:23;7.00;99.90
36790;DHT22;22740;52.182;8.780;2023-05-02T23:13:26;6.90;99.90
36790;DHT22;22740;52.182;8.780;2023-05-02T23:19:28;6.70;99.90
36790;DHT22;22740;52.182;8.780;2023-05-02T23:25:30;6.40;99.90
36790;DHT22;22740;52.182;8.780;2023-05-02T23:31:32;6.40;99.90
36790;DHT22;22740;52.182;8.780;2023-05-02T23:37:34;6.20;99.90
36790;DHT22;22740;52.182;8.780;2023-05-02T23:43:36;5.90;99.90
36790;DHT22;22740;52.182;8.780;2023-05-02T23:49:37;6.10;99.90
36790;DHT22;22740;52.182;8.780;2023-05-02T23:55:39;5.80;99.90
